Time;durP1;ratioP1;P1;durP2;ratioP2;P2;SDS_P1;SDS_P2;PMS_P1;PMS_P2;Temp;Humidity;BMP_temperature;BMP_pressure;BME280_temperature;BME280_humidity;BME280_pressure;Samples;Min_cycle;Max_cycle;Signal;HPM_P1;HPM_P2
2022/09/08 00:01:11;;;;;;;;;;;;;;;23.40;49.87;100629.22;5013285;28;4176;-60
2022/09/08 00:03:37;;;;;;;;;;;;;;;23.38;49.51;100629.16;5014808;28;4257;-60
2022/09/08 00:06:05;;;;;;;;;;;;;;;23.38;49.42;100626.28;5009194;28;5288;-60
2022/09/08 00:08:31;;;;;;;;;;;;;;;23.39;49.56;100622.00;5010419;28;4231;-60
2022/09/08 00:10:59;;;;;;;;;;;;;;;23.37;49.51;100624.09;5015472;28;4209;-61
2022/09/08 00:13:25;;;;;;;;;;;;;;;23.36;49.23;100617.53;5016150;28;4266;-60
2022/09/08 00:15:52;;;;;;;;;;;;;;;23.36;49.63;100620.44;5012365;28;5503;-60
2022/09/08 00:18:19;;;;;;;;;;;;;;;23.36;49.49;100611.03;5024169;28;5292;-60
2022/09/08 00:20:46;;;;;;;;;;;;;;;23.36;49.39;100608.88;5017418;28;4229;-60
2022/09/08 00:23:12;;;;;;;;;;;;;;;23.34;49.08;100614.63;5014253;28;4188;-60
2022/09/08 00:25:39;;;;;;;;;;;;;;;23.35;49.37;100612.47;5013342;28;4091;-60
2022/09/08 00:28:05;;;;;;;;;;;;;;;23.34;49.27;100620.41;5014542;28;5337;-60
2022/09/08 00:30:32;;;;;;;;;;;;;;;23.35;49.27;100621.84;5016071;28;5383;-60
2022/09/08 00:32:58;;;;;;;;;;;;;;;23.34;49.05;100620.41;5014694;28;4439;-60
2022/09/08 00:35:25;;;;;;;;;;;;;;;23.36;49.11;100620.44;5013034;28;4272;-59
2022/09/08 00:37:52;;;;;;;;;;;;;;;23.37;49.26;100624.81;5010248;28;5569;-60
2022/09/08 00:40:19;;;;;;;;;;;;;;;23.37;49.08;100635.63;5016105;28;4222;-60
2022/09/08 00:42:45;;;;;;;;;;;;;;;23.36;49.16;100629.09;5009004;28;4025;-60
2022/09/08 00:45:11;;;;;;;;;;;;;;;23.34;48.85;100626.16;5007521;28;4208;-60
2022/09/08 00:47:40;;;;;;;;;;;;;;;23.34;49.02;100623.28;5030887;28;4155;-60
2022/09/08 00:50:08;;;;;;;;;;;;;;;23.31;48.98;100621.72;5045970;28;4182;-60
2022/09/08 00:52:42;;;;;;;;;;;;;;;23.33;49.01;100613.13;5031001;28;4201;-60
2022/09/08 00:55:09;;;;;;;;;;;;;;;23.34;48.82;100608.84;5033929;28;4196;-60
2022/09/08 00:57:35;;;;;;;;;;;;;;;23.34;48.88;100608.84;5047467;28;4201;-60
2022/09/08 01:00:03;;;;;;;;;;;;;;;23.28;48.92;100611.53;5034657;28;4191;-60
2022/09/08 01:02:30;;;;;;;;;;;;;;;23.31;48.75;100609.44;5033340;28;4287;-60
2022/09/08 01:04:58;;;;;;;;;;;;;;;23.29;48.93;100595.66;5032746;28;5322;-60
2022/09/08 01:13:18;;;;;;;;;;;;;;;23.26;48.49;100608.56;5042882;28;4172;-60
2022/09/08 01:15:44;;;;;;;;;;;;;;;23.26;48.42;100602.81;5038247;28;4311;-60
2022/09/08 01:18:11;;;;;;;;;;;;;;;23.27;48.43;100610.03;5029444;28;4189;-60
2022/09/08 01:20:41;;;;;;;;;;;;;;;23.30;48.28;100602.94;5048769;28;4077;-60
2022/09/08 01:23:12;;;;;;;;;;;;;;;23.30;48.17;100597.16;5051776;28;4164;-60
2022/09/08 01:25:47;;;;;;;;;;;;;;;23.29;48.38;100587.00;5051224;28;4164;-60
2022/09/08 01:28:24;;;;;;;;;;;;;;;23.27;48.43;100597.75;5011079;28;4227;-60
2022/09/08 01:30:50;;;;;;;;;;;;;;;23.26;48.18;100608.56;5044124;28;4203;-60
2022/09/08 01:33:16;;;;;;;;;;;;;;;23.27;48.15;100610.03;5028268;28;5425;-60
2022/09/08 01:35:43;;;;;;;;;;;;;;;23.26;47.88;100602.81;5012227;28;4074;-60
2022/09/08 01:38:10;;;;;;;;;;;;;;;23.27;48.14;100610.03;5014217;28;5233;-60
2022/09/08 01:40:38;;;;;;;;;;;;;;;23.26;47.86;100608.56;5046458;28;4370;-60
2022/09/08 01:43:07;;;;;;;;;;;;;;;23.26;48.13;100602.06;5013501;28;4135;-60
2022/09/08 01:45:33;;;;;;;;;;;;;;;23.26;47.76;100604.97;5029839;28;4501;-60
2022/09/08 01:48:00;;;;;;;;;;;;;;;23.25;48.16;100595.56;5014907;28;4183;-60
2022/09/08 01:50:26;;;;;;;;;;;;;;;23.23;48.24;100592.63;5015982;28;4374;-60
2022/09/08 01:52:52;;;;;;;;;;;;;;;23.21;48.07;100586.78;5015287;28;4203;-60
2022/09/08 01:55:19;;;;;;;;;;;;;;;23.19;47.99;100578.78;5018041;28;5673;-60
2022/09/08 01:57:45;;;;;;;;;;;;;;;23.20;47.70;100577.38;5016704;28;4211;-60
2022/09/08 02:00:12;;;;;;;;;;;;;;;23.18;47.64;100576.56;5036831;28;4162;-59
2022/09/08 02:02:38;;;;;;;;;;;;;;;23.23;47.70;100581.06;5034935;28;4175;-60
2022/09/08 02:05:04;;;;;;;;;;;;;;;23.18;47.98;100567.88;5035015;28;4539;-60
2022/09/08 02:07:31;;;;;;;;;;;;;;;23.18;47.92;100574.41;5035087;28;4209;-60
2022/09/08 02:09:58;;;;;;;;;;;;;;;23.18;47.45;100574.41;5036355;28;5344;-60
2022/09/08 02:12:24;;;;;;;;;;;;;;;23.14;47.66;100579.34;5034888;28;4267;-60
2022/09/08 02:14:51;;;;;;;;;;;;;;;23.15;47.51;100580.81;5038516;28;4192;-60
2022/09/08 02:17:17;;;;;;;;;;;;;;;23.15;47.33;100580.81;5032407;28;4061;-60
2022/09/08 02:19:44;;;;;;;;;;;;;;;23.18;47.39;100579.44;5034800;28;6373;-60
2022/09/08 02:22:10;;;;;;;;;;;;;;;23.17;47.20;100580.88;5033835;28;5227;-60
2022/09/08 02:24:37;;;;;;;;;;;;;;;23.13;47.17;100578.56;5035050;28;5446;-60
2022/09/08 02:27:03;;;;;;;;;;;;;;;23.13;47.36;100569.91;5035864;28;4194;-60
2022/09/08 02:29:29;;;;;;;;;;;;;;;23.18;47.26;100574.41;5034399;28;5396;-60
2022/09/08 02:31:56;;;;;;;;;;;;;;;23.16;47.18;100564.97;5034905;28;5288;-60
2022/09/08 02:34:22;;;;;;;;;;;;;;;23.12;46.91;100561.94;5031454;28;4226;-60
2022/09/08 02:36:49;;;;;;;;;;;;;;;23.13;47.10;100560.50;5037537;28;4241;-61
2022/09/08 02:39:16;;;;;;;;;;;;;;;23.14;47.11;100562.75;5034676;28;5431;-60
2022/09/08 02:41:42;;;;;;;;;;;;;;;23.10;46.89;100556.84;5036669;28;4222;-60
2022/09/08 02:44:09;;;;;;;;;;;;;;;23.08;46.92;100556.03;5031523;28;4261;-60
2022/09/08 02:46:35;;;;;;;;;;;;;;;23.09;46.72;100560.38;5029509;28;4223;-60
2022/09/08 02:49:01;;;;;;;;;;;;;;;23.09;46.58;100549.59;5032218;28;4234;-60
2022/09/08 02:51:28;;;;;;;;;;;;;;;23.07;46.86;100546.63;5033595;28;4297;-60
2022/09/08 02:53:55;;;;;;;;;;;;;;;23.05;46.86;100549.47;5033486;28;4318;-60
2022/09/08 02:56:21;;;;;;;;;;;;;;;23.08;46.69;100553.16;5036045;28;4204;-60
2022/09/08 02:58:47;;;;;;;;;;;;;;;23.09;46.67;100555.38;5021898;28;4202;-61
2022/09/08 03:01:14;;;;;;;;;;;;;;;23.07;47.13;100545.91;5036165;28;4197;-60
2022/09/08 03:03:40;;;;;;;;;;;;;;;23.06;46.82;100542.25;5048793;28;4349;-60
2022/09/08 03:06:07;;;;;;;;;;;;;;;23.08;46.60;100541.59;5030856;28;5209;-60
2022/09/08 03:08:34;;;;;;;;;;;;;;;23.02;46.67;100539.28;5029008;28;4266;-60
2022/09/08 03:11:00;;;;;;;;;;;;;;;23.03;46.99;100545.78;5034472;28;4198;-60
2022/09/08 03:13:26;;;;;;;;;;;;;;;23.03;46.59;100540.00;5033891;28;4215;-60
2022/09/08 03:15:53;;;;;;;;;;;;;;;23.06;46.45;100538.66;5036109;28;4171;-60
2022/09/08 03:18:19;;;;;;;;;;;;;;;23.06;46.54;100530.72;5035385;28;4324;-60
2022/09/08 03:20:46;;;;;;;;;;;;;;;22.96;46.67;100519.56;5034961;28;4207;-60
2022/09/08 03:23:17;;;;;;;;;;;;;;;22.99;46.60;100512.47;5033381;28;5385;-60
2022/09/08 03:25:44;;;;;;;;;;;;;;;22.90;46.63;100516.50;5032624;28;4249;-59
2022/09/08 03:28:10;;;;;;;;;;;;;;;22.95;46.60;100511.56;5032640;28;5224;-59
2022/09/08 03:30:37;;;;;;;;;;;;;;;23.02;46.49;100509.63;5048355;28;4231;-58
2022/09/08 03:33:03;;;;;;;;;;;;;;;22.99;46.12;100524.00;5034953;28;4254;-61
2022/09/08 03:35:30;;;;;;;;;;;;;;;22.99;46.50;100523.28;5022376;28;4296;-61
2022/09/08 03:37:56;;;;;;;;;;;;;;;22.91;46.16;100517.97;5033216;28;5179;-61
2022/09/08 03:40:22;;;;;;;;;;;;;;;22.90;46.07;100528.03;5027064;28;4344;-61
2022/09/08 03:42:49;;;;;;;;;;;;;;;22.96;45.84;100527.50;5011685;28;4184;-61
2022/09/08 03:45:16;;;;;;;;;;;;;;;22.95;46.10;100526.00;5014028;28;4174;-62
2022/09/08 03:47:42;;;;;;;;;;;;;;;22.93;45.90;100520.94;5014614;28;4184;-61
2022/09/08 03:50:12;;;;;;;;;;;;;;;22.90;46.20;100516.50;5013955;28;4329;-61
2022/09/08 03:52:38;;;;;;;;;;;;;;;22.87;45.92;100511.34;5015921;28;4265;-61
2022/09/08 03:55:05;;;;;;;;;;;;;;;22.88;45.76;100507.75;5031512;28;5260;-61
2022/09/08 03:57:31;;;;;;;;;;;;;;;22.89;45.71;100491.19;5036118;28;5247;-61
2022/09/08 03:59:57;;;;;;;;;;;;;;;22.81;45.61;100497.44;5034881;28;5144;-61
2022/09/08 04:02:24;;;;;;;;;;;;;;;22.82;45.79;100498.22;5032471;28;4403;-61
2022/09/08 04:04:50;;;;;;;;;;;;;;;22.80;45.44;100502.50;5033177;28;4200;-61
2022/09/08 04:07:17;;;;;;;;;;;;;;;22.84;45.33;100501.88;5036972;28;5446;-61
2022/09/08 04:09:44;;;;;;;;;;;;;;;22.81;45.26;100503.22;5036029;28;4214;-61
2022/09/08 04:12:10;;;;;;;;;;;;;;;22.80;45.34;100496.72;5032483;28;4212;-61
2022/09/08 04:14:37;;;;;;;;;;;;;;;22.73;45.36;100497.22;5037245;28;4220;-61
2022/09/08 04:17:03;;;;;;;;;;;;;;;22.74;45.17;100492.91;5035984;28;4216;-61
2022/09/08 04:19:30;;;;;;;;;;;;;;;22.74;44.96;100492.91;5036561;28;4172;-61
2022/09/08 04:21:56;;;;;;;;;;;;;;;22.72;44.88;100487.06;5034041;28;4248;-61
2022/09/08 04:24:22;;;;;;;;;;;;;;;22.69;44.90;100474.72;5035595;28;4314;-61
2022/09/08 04:26:49;;;;;;;;;;;;;;;22.64;44.74;100483.94;5036916;28;5200;-61
2022/09/08 04:29:16;;;;;;;;;;;;;;;22.65;44.83;100473.88;5034441;28;4390;-60
2022/09/08 04:31:42;;;;;;;;;;;;;;;22.67;44.87;100471.03;5030514;28;4328;-61
2022/09/08 04:34:09;;;;;;;;;;;;;;;22.67;44.50;100471.03;5031021;28;4171;-61
2022/09/08 04:36:35;;;;;;;;;;;;;;;22.63;44.29;100465.13;5047964;28;4270;-61
2022/09/08 04:39:01;;;;;;;;;;;;;;;22.67;44.35;100471.78;5031781;28;4296;-61
2022/09/08 04:41:28;;;;;;;;;;;;;;;22.63;44.52;100473.81;5034601;28;4177;-61
2022/09/08 04:43:55;;;;;;;;;;;;;;;22.63;44.29;100480.31;5034588;28;5345;-61
2022/09/08 04:46:21;;;;;;;;;;;;;;;22.66;44.25;100475.34;5032871;28;4186;-62
2022/09/08 04:48:48;;;;;;;;;;;;;;;22.61;44.49;100480.25;5023614;28;5228;-61
2022/09/08 04:51:15;;;;;;;;;;;;;;;22.58;44.38;100476.56;5034056;28;4107;-61
2022/09/08 04:53:42;;;;;;;;;;;;;;;22.61;44.25;100491.81;5032516;28;5272;-62
2022/09/08 04:56:08;;;;;;;;;;;;;;;22.58;44.13;100482.31;5031944;28;4185;-61
2022/09/08 04:58:35;;;;;;;;;;;;;;;22.59;44.09;100475.16;5033763;28;4271;-61
2022/09/08 05:01:05;;;;;;;;;;;;;;;22.70;44.16;100481.22;5023254;28;4179;-60
2022/09/08 05:03:32;;;;;;;;;;;;;;;22.31;45.04;100488.66;5028364;28;5461;-61
2022/09/08 05:06:08;;;;;;;;;;;;;;;22.18;44.90;100470.94;5028939;28;4074;-59
2022/09/08 05:08:35;;;;;;;;;;;;;;;22.04;44.43;100479.13;5028143;28;4267;-69
2022/09/08 05:11:01;;;;;;;;;;;;;;;21.99;44.34;100474.66;5028868;28;5326;-68
2022/09/08 05:13:27;;;;;;;;;;;;;;;22.08;44.44;100479.28;5023389;28;4164;-72
2022/09/08 05:16:01;;;;;;;;;;;;;;;22.53;45.26;100474.97;5020999;28;4587;-71
2022/09/08 05:18:27;;;;;;;;;;;;;;;22.64;43.73;100483.94;5034866;28;4368;-71
2022/09/08 05:20:54;;;;;;;;;;;;;;;22.61;43.43;100486.03;5043449;28;4166;-72
2022/09/08 05:23:20;;;;;;;;;;;;;;;22.43;43.90;100489.06;5039680;28;4345;-70
2022/09/08 05:25:53;;;;;;;;;;;;;;;22.55;43.33;100486.56;5034576;28;4312;-76
2022/09/08 05:28:20;;;;;;;;;;;;;;;22.50;42.67;100487.84;5031785;28;4165;-67
2022/09/08 05:30:46;;;;;;;;;;;;;;;22.47;43.06;100492.09;5026184;28;4241;-72
2022/09/08 05:33:12;;;;;;;;;;;;;;;22.57;42.90;100485.91;5033161;28;4285;-72
2022/09/08 05:35:39;;;;;;;;;;;;;;;22.68;42.78;100484.81;5011261;28;4179;-73
2022/09/08 05:38:05;;;;;;;;;;;;;;;22.76;42.78;100472.75;5007042;28;4099;-73
2022/09/08 05:40:33;;;;;;;;;;;;;;;22.81;43.25;100465.69;5015154;28;4224;-73
2022/09/08 05:43:00;;;;;;;;;;;;;;;22.82;43.54;100470.06;5014299;28;4215;-72
2022/09/08 05:45:26;;;;;;;;;;;;;;;22.85;43.46;100462.94;5013537;28;4241;-69
2022/09/08 05:47:52;;;;;;;;;;;;;;;22.86;43.58;100469.44;5011637;28;4164;-74
2022/09/08 05:50:19;;;;;;;;;;;;;;;22.83;44.02;100471.53;5013070;28;4237;-74
2022/09/08 05:52:45;;;;;;;;;;;;;;;22.80;44.48;100481.56;5012848;28;4248;-74
2022/09/08 05:55:13;;;;;;;;;;;;;;;22.81;44.49;100485.91;5024145;28;4300;-74
2022/09/08 05:57:39;;;;;;;;;;;;;;;22.81;44.72;100491.69;5034557;28;4939;-74
2022/09/08 06:00:06;;;;;;;;;;;;;;;22.85;44.73;100476.63;5029694;28;4401;-74
2022/09/08 06:02:34;;;;;;;;;;;;;;;22.85;45.07;100479.53;5031020;28;4196;-74
2022/09/08 06:05:01;;;;;;;;;;;;;;;22.82;45.26;100472.97;5035695;28;5468;-74
2022/09/08 06:07:27;;;;;;;;;;;;;;;22.84;45.28;100475.16;5035637;28;4227;-74
2022/09/08 06:09:54;;;;;;;;;;;;;;;22.87;45.41;100482.47;5036839;28;4371;-74
2022/09/08 06:12:20;;;;;;;;;;;;;;;22.88;45.24;100472.38;5038969;28;5377;-74
2022/09/08 06:14:46;;;;;;;;;;;;;;;22.88;45.54;100473.13;5037791;28;4228;-73
2022/09/08 06:17:13;;;;;;;;;;;;;;;22.87;45.47;100473.81;5036586;28;4063;-74
2022/09/08 06:19:39;;;;;;;;;;;;;;;22.88;45.62;100478.91;5035300;28;4192;-74
2022/09/08 06:22:05;;;;;;;;;;;;;;;22.89;45.89;100473.88;5037094;28;5289;-74
2022/09/08 06:24:32;;;;;;;;;;;;;;;22.90;45.60;100475.34;5038753;28;5195;-74
2022/09/08 06:27:01;;;;;;;;;;;;;;;22.88;45.91;100476.00;5038350;28;6367;-74
2022/09/08 06:29:40;;;;;;;;;;;;;;;22.89;46.19;100474.63;5033787;28;4241;-74
2022/09/08 06:32:14;;;;;;;;;;;;;;;22.89;46.13;100480.38;5050050;28;5311;-74
2022/09/08 06:34:41;;;;;;;;;;;;;;;22.90;46.35;100475.34;5051071;28;4270;-74
2022/09/08 06:37:30;;;;;;;;;;;;;;;22.88;46.26;100476.00;5052931;28;4527;-74
2022/09/08 06:39:58;;;;;;;;;;;;;;;22.89;46.58;100486.16;5031600;28;4170;-73
2022/09/08 06:42:30;;;;;;;;;;;;;;;22.91;46.66;100489.09;5051760;28;5398;-74
2022/09/08 06:44:56;;;;;;;;;;;;;;;22.89;46.81;100488.31;5051821;28;6320;-74
2022/09/08 06:47:24;;;;;;;;;;;;;;;22.88;46.67;100490.44;5050422;28;4314;-74
2022/09/08 06:49:50;;;;;;;;;;;;;;;22.88;46.74;100478.91;5051251;28;4179;-73
2022/09/08 06:52:21;;;;;;;;;;;;;;;22.88;46.87;100483.94;5041975;28;4235;-74
2022/09/08 06:55:06;;;;;;;;;;;;;;;22.87;47.13;100488.97;5042412;28;4184;-74
2022/09/08 06:57:36;;;;;;;;;;;;;;;22.90;46.99;100472.44;5052575;28;5655;-74
2022/09/08 07:00:23;;;;;;;;;;;;;;;22.88;46.90;100463.72;5041897;28;7234;-74
2022/09/08 07:02:51;;;;;;;;;;;;;;;22.89;47.01;100463.06;5045495;28;5484;-67
2022/09/08 07:05:31;;;;;;;;;;;;;;;22.89;46.99;100462.34;5032285;28;4294;-74
2022/09/08 07:08:11;;;;;;;;;;;;;;;22.92;47.23;100461.69;5035114;28;4122;-72
2022/09/08 07:10:56;;;;;;;;;;;;;;;22.95;47.15;100454.59;5049192;28;4291;-75
2022/09/08 07:13:22;;;;;;;;;;;;;;;22.95;46.86;100463.25;5037282;28;5360;-75
2022/09/08 07:15:57;;;;;;;;;;;;;;;22.97;47.11;100474.84;5036311;28;4261;-75
2022/09/08 07:18:42;;;;;;;;;;;;;;;22.98;46.94;100487.16;5035194;28;4186;-72
2022/09/08 07:21:28;;;;;;;;;;;;;;;22.99;47.16;100483.59;5033217;28;4179;-66
2022/09/08 07:23:55;;;;;;;;;;;;;;;22.99;47.41;100460.50;5030795;28;4022;-66
2022/09/08 07:26:33;;;;;;;;;;;;;;;23.02;47.46;100454.78;5027149;28;4476;-67
2022/09/08 07:29:05;;;;;;;;;;;;;;;23.04;47.97;100469.28;5029095;28;5320;-67
2022/09/08 07:31:31;;;;;;;;;;;;;;;23.05;47.95;100473.66;5034846;28;5388;-63
2022/09/08 07:33:59;;;;;;;;;;;;;;;23.05;47.81;100473.66;5048548;28;4136;-67
2022/09/08 07:36:37;;;;;;;;;;;;;;;23.04;47.86;100469.28;5035338;28;4101;-63
2022/09/08 07:39:10;;;;;;;;;;;;;;;23.02;47.62;100469.22;5035049;28;4311;-67
2022/09/08 07:41:38;;;;;;;;;;;;;;;22.85;47.13;100471.59;5025874;28;4247;-67
2022/09/08 07:44:05;;;;;;;;;;;;;;;22.89;46.27;100460.19;5050949;28;4648;-66
2022/09/08 07:46:43;;;;;;;;;;;;;;;22.79;45.88;100454.09;5046182;28;4611;-66
2022/09/08 07:49:19;;;;;;;;;;;;;;;22.68;45.63;100452.31;5053384;28;4139;-67
2022/09/08 07:51:51;;;;;;;;;;;;;;;22.70;45.67;100464.66;5032752;28;4482;-66
2022/09/08 07:54:19;;;;;;;;;;;;;;;22.62;45.40;100460.78;5030051;28;4435;-65
2022/09/08 07:56:51;;;;;;;;;;;;;;;22.60;44.97;100455.69;5047407;28;4519;-66
2022/09/08 07:59:44;;;;;;;;;;;;;;;22.59;45.06;100466.50;5036055;28;4629;-66
2022/09/08 08:02:20;;;;;;;;;;;;;;;22.55;45.15;100471.41;5030370;28;4158;-65
2022/09/08 08:04:50;;;;;;;;;;;;;;;22.54;45.32;100479.34;5032040;28;4267;-66
2022/09/08 08:07:19;;;;;;;;;;;;;;;22.61;45.36;100474.50;5046343;28;4256;-65
2022/09/08 08:09:48;;;;;;;;;;;;;;;22.66;44.86;100466.69;5049449;28;4170;-65
2022/09/08 08:12:30;;;;;;;;;;;;;;;22.77;45.02;100477.16;5033646;28;4518;-59
2022/09/08 08:15:06;;;;;;;;;;;;;;;22.72;45.63;100472.63;5036060;28;4513;-59
2022/09/08 08:17:57;;;;;;;;;;;;;;;22.44;46.05;100473.22;5034324;28;4548;-59
2022/09/08 08:20:28;;;;;;;;;;;;;;;22.31;46.00;100459.81;5005487;28;4221;-56
2022/09/08 08:22:59;;;;;;;;;;;;;;;22.32;46.17;100464.94;5027391;28;4300;-64
2022/09/08 08:25:41;;;;;;;;;;;;;;;22.57;45.40;100466.44;5039960;28;4218;-62
2022/09/08 08:28:12;;;;;;;;;;;;;;;22.21;45.79;100459.47;5035583;28;4135;-64
2022/09/08 08:30:56;;;;;;;;;;;;;;;22.30;45.55;100452.59;5040704;28;4885;-64
2022/09/08 08:33:25;;;;;;;;;;;;;;;22.32;45.46;100455.53;5037482;28;4211;-65
2022/09/08 08:36:12;;;;;;;;;;;;;;;22.46;45.52;100458.88;5031381;28;5290;-66
2022/09/08 08:38:40;;;;;;;;;;;;;;;22.35;45.22;100457.06;5034137;28;4228;-65
2022/09/08 08:41:08;;;;;;;;;;;;;;;22.30;45.73;100458.34;5040142;28;4230;-65
2022/09/08 08:43:44;;;;;;;;;;;;;;;22.29;45.68;100451.13;5038334;28;5353;-65
2022/09/08 08:46:39;;;;;;;;;;;;;;;22.07;46.17;100448.97;5053621;28;4558;-64
2022/09/08 08:49:06;;;;;;;;;;;;;;;22.33;45.87;100445.47;5033462;28;4102;-63
2022/09/08 08:51:50;;;;;;;;;;;;;;;22.27;46.34;100443.13;5035628;28;4339;-66
2022/09/08 08:54:38;;;;;;;;;;;;;;;22.40;46.89;100426.94;5036647;28;5321;-63
2022/09/08 08:57:23;;;;;;;;;;;;;;;22.35;48.03;100425.34;5040312;28;4088;-62
2022/09/08 08:59:53;;;;;;;;;;;;;;;21.65;51.00;100411.53;5032962;28;4227;-64
2022/09/08 09:02:30;;;;;;;;;;;;;;;22.14;50.63;100421.78;5052611;28;4330;-63
2022/09/08 09:05:03;;;;;;;;;;;;;;;22.05;51.86;100416.44;5051889;28;5560;-68
2022/09/08 09:07:45;;;;;;;;;;;;;;;22.02;52.60;100424.28;5036121;28;4251;-68
2022/09/08 09:10:31;;;;;;;;;;;;;;;22.10;52.97;100423.81;5050200;28;4219;-66
2022/09/08 09:13:16;;;;;;;;;;;;;;;22.20;53.54;100414.75;5038706;28;4398;-65
2022/09/08 09:15:42;;;;;;;;;;;;;;;21.98;53.86;100412.63;5037038;28;4140;-66
2022/09/08 09:18:49;;;;;;;;;;;;;;;21.46;56.18;100415.19;5030599;28;5082;-64
2022/09/08 09:21:35;;;;;;;;;;;;;;;21.70;56.38;100418.19;5041444;28;4312;-65
2022/09/08 09:24:15;;;;;;;;;;;;;;;22.18;54.92;100418.31;5053829;28;4183;-60
2022/09/08 09:26:44;;;;;;;;;;;;;;;22.12;55.28;100424.59;5032122;28;4076;-60
2022/09/08 09:29:13;;;;;;;;;;;;;;;22.23;54.91;100408.41;5033482;28;4355;-57
2022/09/08 09:32:01;;;;;;;;;;;;;;;22.24;54.94;100415.66;5036174;28;4267;-59
2022/09/08 09:34:30;;;;;;;;;;;;;;;22.12;55.10;100415.94;5025361;28;4400;-58
2022/09/08 09:37:15;;;;;;;;;;;;;;;22.10;54.93;100407.22;5030154;28;4161;-57
2022/09/08 09:39:54;;;;;;;;;;;;;;;22.16;55.00;100401.66;5038234;28;4293;-63
2022/09/08 09:42:25;;;;;;;;;;;;;;;22.14;55.71;100401.59;5047452;28;4175;-64
2022/09/08 09:45:10;;;;;;;;;;;;;;;21.90;55.81;100389.31;5050433;28;4156;-64
2022/09/08 09:47:47;;;;;;;;;;;;;;;21.71;56.75;100380.03;5045970;28;4335;-63
2022/09/08 09:50:27;;;;;;;;;;;;;;;21.80;56.82;100380.31;5037050;28;4181;-66
2022/09/08 09:52:59;;;;;;;;;;;;;;;21.67;56.97;100388.56;5016110;28;4115;-66
2022/09/08 09:56:07;;;;;;;;;;;;;;;22.08;56.33;100389.91;5012408;28;5360;-68
2022/09/08 09:58:36;;;;;;;;;;;;;;;21.79;57.16;100401.91;5043670;28;4185;-62
2022/09/08 10:01:02;;;;;;;;;;;;;;;21.83;56.99;100397.00;5016849;28;4278;-61
2022/09/08 10:03:48;;;;;;;;;;;;;;;21.82;57.93;100414.97;5022253;28;4244;-62
2022/09/08 10:06:22;;;;;;;;;;;;;;;22.28;55.97;100438.09;5016061;28;4373;-71
2022/09/08 10:09:00;;;;;;;;;;;;;;;22.51;55.07;100465.50;5019084;28;4275;-67
2022/09/08 10:11:30;;;;;;;;;;;;;;;22.78;53.86;100472.81;5023887;28;4007;-70
2022/09/08 10:14:02;;;;;;;;;;;;;;;22.93;52.99;100489.16;5019056;28;5368;-69
2022/09/08 10:16:28;;;;;;;;;;;;;;;22.98;53.20;100493.66;5019932;28;5422;-68
2022/09/08 10:19:01;;;;;;;;;;;;;;;23.16;52.93;100479.03;5009626;28;5501;-66
2022/09/08 10:21:46;;;;;;;;;;;;;;;23.28;52.03;100477.91;5048023;28;5283;-71
2022/09/08 10:24:28;;;;;;;;;;;;;;;23.23;52.34;100474.19;5038411;28;4276;-69
2022/09/08 10:27:00;;;;;;;;;;;;;;;23.33;51.96;100480.22;5035620;28;4306;-66
2022/09/08 10:29:38;;;;;;;;;;;;;;;23.13;52.38;100491.19;5031026;28;4484;-62
2022/09/08 10:32:27;;;;;;;;;;;;;;;22.81;52.61;100485.91;5038033;28;4601;-63
2022/09/08 10:35:04;;;;;;;;;;;;;;;22.93;52.61;100463.19;5049391;28;4198;-61
2022/09/08 10:37:37;;;;;;;;;;;;;;;23.15;51.96;100471.03;5016347;28;4240;-64
2022/09/08 10:40:18;;;;;;;;;;;;;;;23.03;51.49;100441.81;4998179;28;5332;-71
2022/09/08 10:42:45;;;;;;;;;;;;;;;23.26;52.31;100417.94;5040805;28;4210;-66
2022/09/08 10:45:19;;;;;;;;;;;;;;;23.39;51.43;100419.72;5020768;28;4886;-72
2022/09/08 10:48:03;;;;;;;;;;;;;;;23.40;51.42;100421.19;5017833;28;4381;-69
2022/09/08 10:50:30;;;;;;;;;;;;;;;23.12;52.03;100403.81;5009984;28;5502;-66
2022/09/08 10:53:16;;;;;;;;;;;;;;;23.26;51.42;100403.47;5005139;28;4770;-66
2022/09/08 10:56:03;;;;;;;;;;;;;;;22.96;51.68;100368.69;5032698;28;4571;-70
2022/09/08 10:58:49;;;;;;;;;;;;;;;22.86;52.48;100369.16;5045587;28;4268;-70
2022/09/08 11:01:36;;;;;;;;;;;;;;;22.84;52.65;100409.50;5038026;28;6271;-70
2022/09/08 11:04:23;;;;;;;;;;;;;;;22.79;52.66;100390.59;5047424;28;5346;-73
2022/09/08 11:07:08;;;;;;;;;;;;;;;22.74;53.04;100389.00;5024884;28;4365;-69
2022/09/08 11:09:38;;;;;;;;;;;;;;;22.85;52.67;100405.19;5030636;28;5316;-70
2022/09/08 11:12:08;;;;;;;;;;;;;;;22.80;52.93;100423.81;5026130;28;4074;-69
2022/09/08 11:14:53;;;;;;;;;;;;;;;22.83;53.07;100421.72;5037847;28;4034;-66
2022/09/08 11:17:24;;;;;;;;;;;;;;;22.76;53.71;100423.69;5028142;28;4256;-68
2022/09/08 11:19:56;;;;;;;;;;;;;;;22.82;53.48;100395.03;5031304;28;4254;-68
2022/09/08 11:22:41;;;;;;;;;;;;;;;22.81;53.80;100407.97;5040690;28;4092;-67
2022/09/08 11:25:26;;;;;;;;;;;;;;;22.85;53.51;100375.59;5024691;28;4230;-66
2022/09/08 11:27:58;;;;;;;;;;;;;;;22.83;54.01;100361.84;5031455;28;5537;-60
2022/09/08 11:30:46;;;;;;;;;;;;;;;22.80;54.77;100374.75;5013813;28;4175;-65
2022/09/08 11:33:28;;;;;;;;;;;;;;;23.07;54.31;100381.31;5039979;28;4035;-64
2022/09/08 11:35:58;;;;;;;;;;;;;;;23.25;54.38;100384.69;5007938;28;4258;-66
2022/09/08 11:38:28;;;;;;;;;;;;;;;23.30;53.96;100389.16;5018775;28;4013;-64
2022/09/08 11:41:08;;;;;;;;;;;;;;;23.37;54.10;100373.44;5021116;28;5256;-64
2022/09/08 11:43:50;;;;;;;;;;;;;;;23.38;54.71;100366.25;5022518;28;5251;-67
2022/09/08 11:46:20;;;;;;;;;;;;;;;23.45;54.15;100358.47;5040951;28;4206;-66
2022/09/08 11:48:54;;;;;;;;;;;;;;;23.47;53.85;100343.34;5042772;28;4026;-63
2022/09/08 11:51:54;;;;;;;;;;;;;;;23.50;53.83;100339.84;5051086;28;5715;-64
2022/09/08 11:54:43;;;;;;;;;;;;;;;23.50;54.06;100348.50;5057177;28;4254;-65
2022/09/08 11:57:21;;;;;;;;;;;;;;;23.51;54.05;100352.84;5046915;28;4170;-66
2022/09/08 12:00:06;;;;;;;;;;;;;;;23.54;54.11;100354.38;5038141;28;4264;-66
2022/09/08 12:02:44;;;;;;;;;;;;;;;23.57;53.98;100346.47;5044525;28;4145;-68
2022/09/08 12:05:19;;;;;;;;;;;;;;;23.53;53.61;100340.63;5053720;28;4265;-66
2022/09/08 12:08:12;;;;;;;;;;;;;;;23.37;54.79;100329.38;5037535;28;4164;-67
2022/09/08 12:10:38;;;;;;;;;;;;;;;23.47;54.55;100320.97;5036787;28;5474;-70
2022/09/08 12:13:14;;;;;;;;;;;;;;;23.54;54.47;100318.94;5042442;28;4176;-68
2022/09/08 12:15:44;;;;;;;;;;;;;;;23.35;54.77;100326.44;5045327;28;5302;-71
2022/09/08 12:18:13;;;;;;;;;;;;;;;23.49;54.64;100334.72;5042232;28;5061;-69
2022/09/08 12:20:44;;;;;;;;;;;;;;;23.14;55.04;100342.50;5024991;28;5035;-73
2022/09/08 12:23:14;;;;;;;;;;;;;;;23.11;55.39;100333.06;5047271;28;4175;-71
2022/09/08 12:25:50;;;;;;;;;;;;;;;23.10;55.44;100330.84;5035334;28;5652;-72
2022/09/08 12:28:51;;;;;;;;;;;;;;;23.11;55.40;100326.53;5040341;28;5211;-67
2022/09/08 12:31:36;;;;;;;;;;;;;;;23.09;55.55;100320.69;5024283;28;4591;-59
2022/09/08 12:34:08;;;;;;;;;;;;;;;22.94;55.89;100323.19;5025986;28;5239;-71
2022/09/08 12:36:49;;;;;;;;;;;;;;;22.92;56.68;100317.34;5045039;28;4229;-70
2022/09/08 12:39:30;;;;;;;;;;;;;;;22.92;56.61;100311.56;5037007;28;4131;-71
2022/09/08 12:42:02;;;;;;;;;;;;;;;22.89;56.48;100312.94;5050884;28;4208;-71
2022/09/08 12:44:45;;;;;;;;;;;;;;;22.88;56.48;100314.34;5049679;28;4186;-71
2022/09/08 12:47:24;;;;;;;;;;;;;;;22.93;56.06;100315.94;5049240;28;4194;-71
2022/09/08 12:50:09;;;;;;;;;;;;;;;22.93;56.00;100303.63;5048366;28;4134;-71
2022/09/08 12:52:38;;;;;;;;;;;;;;;22.88;55.75;100305.69;5048296;28;4231;-71
2022/09/08 12:55:12;;;;;;;;;;;;;;;22.91;55.70;100304.34;5035976;28;4215;-71
2022/09/08 12:57:47;;;;;;;;;;;;;;;22.90;55.80;100297.06;5037696;28;4121;-71
2022/09/08 13:00:14;;;;;;;;;;;;;;;22.90;55.55;100297.06;5047710;28;4083;-70
2022/09/08 13:02:45;;;;;;;;;;;;;;;22.98;55.59;100303.09;5046620;28;4014;-70
2022/09/08 13:05:16;;;;;;;;;;;;;;;23.00;55.38;100300.28;5036777;28;5210;-70
2022/09/08 13:07:47;;;;;;;;;;;;;;;23.01;55.18;100292.34;5047940;28;4183;-71
2022/09/08 13:10:21;;;;;;;;;;;;;;;23.02;55.31;100298.84;5048390;28;4492;-71
2022/09/08 13:13:00;;;;;;;;;;;;;;;23.00;55.09;100300.28;5051010;28;5255;-70
2022/09/08 13:15:32;;;;;;;;;;;;;;;22.99;55.25;100298.78;5038891;28;4257;-69
2022/09/08 13:18:08;;;;;;;;;;;;;;;22.96;55.02;100294.38;5027442;28;4159;-67